createdAt,value
2017-04-19T00:00:01.009Z,3.3
2017-04-19T00:10:15.692Z,3.1
2017-04-19T00:20:30.213Z,2.8
2017-04-19T00:30:44.045Z,2.5
2017-04-19T00:40:59.402Z,2.3
2017-04-19T00:51:14.703Z,2.3
2017-04-19T01:01:28.459Z,1.9
2017-04-19T01:11:43.809Z,1.8
2017-04-19T01:21:59.373Z,1.4
2017-04-19T01:32:14.756Z,0.9
2017-04-19T01:42:29.385Z,0.7
2017-04-19T01:52:43.282Z,0.5
2017-04-19T02:02:57.181Z,0.5
2017-04-19T02:13:11.920Z,0.2
2017-04-19T02:23:25.663Z,0.4
2017-04-19T02:33:39.349Z,0.2
2017-04-19T02:43:53.711Z,0
2017-04-19T02:54:08.778Z,-0.2
2017-04-19T03:04:23.549Z,-0.1
2017-04-19T03:14:39.052Z,-0.3
2017-04-19T03:24:54.529Z,-0.3
2017-04-19T03:35:09.510Z,-0.3
2017-04-19T03:45:23.382Z,-0.4
2017-04-19T03:55:38.826Z,-0.4
2017-04-19T04:05:52.598Z,-0.4
2017-04-19T04:16:07.164Z,-0.5
2017-04-19T04:26:22.304Z,-0.4
2017-04-19T04:36:36.054Z,-0.4
2017-04-19T04:46:51.341Z,-0.5
2017-04-19T04:57:06.158Z,-0.4
2017-04-19T05:07:20.673Z,0.1
2017-04-19T05:17:36.212Z,0.4
2017-04-19T05:27:50.274Z,0.5
2017-04-19T05:38:04.695Z,0.9
2017-04-19T05:48:20.193Z,1.2
2017-04-19T05:58:33.898Z,1.4
2017-04-19T06:08:47.932Z,1.6
2017-04-19T06:19:03.174Z,2.1
2017-04-19T06:29:17.768Z,2.4
2017-04-19T06:39:33.431Z,2.9
2017-04-19T06:49:47.490Z,3.1
2017-04-19T07:00:02.480Z,3.4
2017-04-19T07:10:18.049Z,4.2
2017-04-19T07:20:32.935Z,4.4
2017-04-19T07:30:48.565Z,4.6
2017-04-19T07:41:03.233Z,5.3
2017-04-19T07:51:17.168Z,4.1
2017-04-19T08:01:32.356Z,5.1
2017-04-19T08:11:47.270Z,6.3
2017-04-19T08:22:01.181Z,6.5
2017-04-19T08:32:16.239Z,7.1
2017-04-19T08:42:30.729Z,6.5
2017-04-19T08:52:45.384Z,5.4
2017-04-19T09:03:00.313Z,6.9
2017-04-19T09:13:15.237Z,6.5
2017-04-19T09:23:30.745Z,5.9
2017-04-19T09:33:46.315Z,8.4
2017-04-19T09:44:01.779Z,5.8
2017-04-19T09:54:16.531Z,6
2017-04-19T10:04:30.991Z,5.9
2017-04-19T10:14:45.721Z,8.8
2017-04-19T10:25:01.493Z,8.2
2017-04-19T10:35:17.220Z,8.2
2017-04-19T10:45:32.379Z,7.6
2017-04-19T10:55:47.431Z,8.4
2017-04-19T11:06:01.316Z,8.3
2017-04-19T11:16:16.670Z,7.3
2017-04-19T11:26:31.744Z,7.5
2017-04-19T11:36:47.354Z,8.3
2017-04-19T11:47:02.927Z,7.3
2017-04-19T11:57:18.099Z,7
2017-04-19T12:07:33.073Z,7.2
2017-04-19T12:17:47.465Z,8.4
2017-04-19T12:28:01.602Z,7.9
2017-04-19T12:38:16.223Z,8.6
2017-04-19T12:48:31.926Z,7.6
2017-04-19T12:58:47.032Z,8.8
2017-04-19T13:09:01.847Z,7.9
2017-04-19T13:19:16.247Z,7.7
2017-04-19T13:29:31.172Z,9.1
2017-04-19T13:39:45.022Z,8.2
2017-04-19T13:49:59.082Z,7.6
2017-04-19T14:00:13.797Z,7.6
2017-04-19T14:10:29.396Z,7.2
2017-04-19T14:20:43.965Z,9.7
2017-04-19T14:30:59.538Z,10.2
2017-04-19T14:41:13.522Z,8.2
2017-04-19T14:51:28.403Z,7.9
2017-04-19T15:01:43.906Z,7.8
2017-04-19T15:11:57.844Z,8
2017-04-19T15:22:13.075Z,9.3
2017-04-19T15:32:26.955Z,8.5
2017-04-19T15:42:42.673Z,7.7
2017-04-19T15:52:56.906Z,7.8
2017-04-19T16:03:11.841Z,9.5
2017-04-19T16:13:27.313Z,8.5
2017-04-19T16:23:42.374Z,8
2017-04-19T16:33:56.420Z,7.7
2017-04-19T16:44:10.254Z,7.6
2017-04-19T16:54:25.011Z,7.6
2017-04-19T17:04:40.534Z,7.6
2017-04-19T17:14:55.204Z,7.4
2017-04-19T17:25:09.869Z,7.2
2017-04-19T17:35:25.101Z,6.8
2017-04-19T17:45:40.554Z,6.6
2017-04-19T17:55:55.296Z,6.4
2017-04-19T18:06:09.624Z,6.1
2017-04-19T18:16:24.303Z,5.3
2017-04-19T18:26:38.303Z,6.1
2017-04-19T18:36:53.381Z,6.3
2017-04-19T18:47:08.094Z,6.3
2017-04-19T18:57:23.148Z,5.9
2017-04-19T19:07:38.783Z,5.4
2017-04-19T19:17:53.551Z,4.8
2017-04-19T19:28:08.614Z,4
2017-04-19T19:38:22.613Z,3.5
2017-04-19T19:48:36.466Z,3.2
2017-04-19T19:58:51.522Z,2.6
2017-04-19T20:09:05.973Z,2.3
2017-04-19T20:19:19.893Z,1.5
2017-04-19T20:29:33.578Z,1.8
2017-04-19T20:39:48.453Z,1.4
2017-04-19T20:50:02.642Z,0.5
2017-04-19T21:00:17.517Z,0.8
2017-04-19T21:10:32.330Z,1.2
2017-04-19T21:20:47.219Z,1.4
2017-04-19T21:31:00.776Z,2.3
2017-04-19T21:41:14.461Z,2.4
2017-04-19T21:51:30.037Z,2.8
2017-04-19T22:01:45.668Z,3.6
2017-04-19T22:11:59.446Z,3.2
2017-04-19T22:22:13.407Z,3.4
2017-04-19T22:32:28.990Z,2.7
2017-04-19T22:42:43.126Z,2.2
2017-04-19T22:52:58.444Z,1.7
2017-04-19T23:03:12.811Z,2
2017-04-19T23:13:27.389Z,1.4
2017-04-19T23:23:41.736Z,0.5
2017-04-19T23:33:55.474Z,0.5
2017-04-19T23:44:09.525Z,0.1
2017-04-19T23:54:24.437Z,-0.4
